Terminal Aerodrome Forecast
Issued by NWS

Home | Current Version | Previous Version | Text Only | Print | Product List | Glossary On
Versions: 1 2 3 4 5 6 7 8 9 10 11 12 13 14 15 16 17 18 19 20 21 22 23 24 25 26 27 28 29 30 31 32 33 34 35 36 37 38 39 40 41 42
000
FTUS46 KEKA 282336
TAFACV
TAF
KACV 282336Z 2900/2924 31009KT P6SM SCT080 SCT250
     FM290400 08004KT P6SM BKN080 BKN250
     FM291400 14005KT P6SM -RA SCT050 BKN080 OVC250
     FM292100 18006KT P6SM -RA SCT035 BKN050 OVC080=

USA.gov is the U.S. government's official web portal to all federal, state and local government web resources and services.